createdAt,value
2018-01-02T00:02:16.754Z,40.70
2018-01-02T00:04:48.136Z,40.50
2018-01-02T00:07:20.734Z,40.70
2018-01-02T00:09:54.060Z,40.50
2018-01-02T00:12:26.662Z,40.80
2018-01-02T00:15:00.391Z,41.20
2018-01-02T00:17:33.759Z,41.10
2018-01-02T00:20:08.829Z,40.80
2018-01-02T00:22:42.372Z,41.00
2018-01-02T00:25:16.167Z,41.10
2018-01-02T00:27:48.325Z,40.70
2018-01-02T00:30:21.236Z,41.60
2018-01-02T00:32:54.667Z,41.00
2018-01-02T00:35:27.076Z,41.40
2018-01-02T00:37:59.203Z,41.40
2018-01-02T00:40:32.139Z,41.60
2018-01-02T00:45:41.402Z,42.20
2018-01-02T00:48:14.596Z,41.80
2018-01-02T00:50:47.199Z,42.30
2018-01-02T00:53:20.299Z,42.80
2018-01-02T00:55:53.434Z,42.60
2018-01-02T00:58:28.653Z,42.60
2018-01-02T01:01:02.053Z,42.60
2018-01-02T01:03:34.276Z,42.70
2018-01-02T01:06:06.825Z,42.20
2018-01-02T01:08:42.172Z,42.20
2018-01-02T01:11:13.969Z,42.60
2018-01-02T01:13:47.660Z,42.60
2018-01-02T01:16:21.437Z,42.70
2018-01-02T01:18:53.955Z,42.40
2018-01-02T01:21:28.608Z,42.30
2018-01-02T01:24:01.828Z,42.50
2018-01-02T01:26:35.106Z,42.50
2018-01-02T01:29:08.149Z,42.40
2018-01-02T01:34:19.684Z,41.70
2018-01-02T01:36:52.964Z,42.20
2018-01-02T01:39:26.481Z,42.10
2018-01-02T01:41:58.914Z,41.80
2018-01-02T01:44:31.962Z,41.60
2018-01-02T01:47:04.286Z,41.30
2018-01-02T01:49:37.638Z,41.40
2018-01-02T01:52:10.584Z,42.40
2018-01-02T01:54:43.774Z,41.60
2018-01-02T01:57:17.033Z,41.20
2018-01-02T01:59:50.632Z,41.60
2018-01-02T02:02:24.780Z,41.00
2018-01-02T02:05:01.880Z,40.80
2018-01-02T02:07:36.378Z,41.60
2018-01-02T02:10:08.737Z,40.80
2018-01-02T02:12:39.831Z,40.60
2018-01-02T02:15:13.162Z,40.80
2018-01-02T02:17:46.977Z,40.70
2018-01-02T02:20:19.464Z,41.00
2018-01-02T02:22:52.233Z,40.80
2018-01-02T02:25:25.058Z,40.30
2018-01-02T02:27:57.358Z,39.80
2018-01-02T02:30:30.137Z,39.60
2018-01-02T02:33:04.086Z,39.70
2018-01-02T02:35:38.120Z,39.60
2018-01-02T02:38:10.859Z,39.30
2018-01-02T02:40:55.988Z,39.20
2018-01-02T02:43:36.069Z,39.10
2018-01-02T02:46:15.956Z,39.80
2018-01-02T02:48:56.775Z,39.50
2018-01-02T02:51:32.983Z,39.40
2018-01-02T02:54:06.123Z,39.30
2018-01-02T02:56:39.459Z,39.60
2018-01-02T02:59:13.014Z,39.70
2018-01-02T03:01:46.370Z,39.20
2018-01-02T03:04:18.717Z,38.90
2018-01-02T03:06:53.708Z,39.20
2018-01-02T03:09:25.894Z,39.20
2018-01-02T03:11:58.669Z,40.10
2018-01-02T03:14:34.437Z,40.00
2018-01-02T03:17:09.994Z,39.30
2018-01-02T03:19:48.727Z,39.20
2018-01-02T03:22:24.004Z,39.30
2018-01-02T03:24:55.844Z,38.90
2018-01-02T03:27:29.425Z,39.10
2018-01-02T03:30:06.137Z,38.60
2018-01-02T03:32:38.386Z,38.70
2018-01-02T03:35:13.641Z,38.20
2018-01-02T03:37:45.565Z,38.20
2018-01-02T03:40:19.206Z,38.20
2018-01-02T03:42:53.701Z,38.10
2018-01-02T03:45:28.601Z,38.10
2018-01-02T03:48:02.645Z,38.30
2018-01-02T03:50:38.566Z,37.80
2018-01-02T03:53:13.456Z,37.60
2018-01-02T03:55:49.037Z,37.60
2018-01-02T03:58:21.556Z,37.60
2018-01-02T04:00:53.529Z,37.90
2018-01-02T04:03:25.850Z,37.80
2018-01-02T04:06:00.017Z,37.80
2018-01-02T04:08:32.240Z,38.30
2018-01-02T04:11:05.739Z,38.10
2018-01-02T04:13:37.927Z,38.50
2018-01-02T04:16:10.203Z,37.90
2018-01-02T04:18:43.612Z,37.80
2018-01-02T04:21:17.868Z,38.10
2018-01-02T04:23:51.710Z,37.90
2018-01-02T04:26:23.955Z,37.60
2018-01-02T04:28:56.168Z,37.90
2018-01-02T04:31:28.904Z,38.30
2018-01-02T04:34:01.270Z,38.80
2018-01-02T04:39:09.267Z,38.40
2018-01-02T04:44:17.175Z,38.50
2018-01-02T04:46:49.327Z,38.50
2018-01-02T04:49:29.109Z,38.50
2018-01-02T04:52:04.004Z,38.70
2018-01-02T04:54:37.149Z,38.70
2018-01-02T04:57:09.735Z,39.10
2018-01-02T04:59:41.678Z,38.70
2018-01-02T05:02:14.259Z,38.60
2018-01-02T05:04:46.000Z,38.20
2018-01-02T05:07:18.183Z,38.80
2018-01-02T05:09:50.722Z,38.40
2018-01-02T05:12:24.690Z,37.80
2018-01-02T05:14:56.729Z,38.20
2018-01-02T05:17:29.970Z,38.60
2018-01-02T05:20:02.846Z,38.40
2018-01-02T05:22:37.023Z,38.70
2018-01-02T05:25:10.133Z,38.60
2018-01-02T05:27:41.852Z,38.50
2018-01-02T05:30:14.085Z,38.90
2018-01-02T05:32:46.370Z,38.70
2018-01-02T05:35:20.905Z,38.50
2018-01-02T05:37:54.209Z,38.80
2018-01-02T05:43:05.145Z,38.30
2018-01-02T05:48:14.279Z,38.00
2018-01-02T05:53:46.226Z,38.40
2018-01-02T05:56:21.394Z,38.00
2018-01-02T05:58:55.744Z,38.20
2018-01-02T06:01:31.909Z,38.60
2018-01-02T06:04:07.152Z,38.20
2018-01-02T06:06:41.279Z,37.80
2018-01-02T06:11:55.893Z,38.70
2018-01-02T06:14:31.466Z,38.10
2018-01-02T06:19:52.101Z,38.50
2018-01-02T06:25:17.004Z,38.20
2018-01-02T06:28:10.480Z,39.00
2018-01-02T06:31:03.380Z,38.90
2018-01-02T06:33:53.276Z,38.90
2018-01-02T06:42:30.969Z,38.50
2018-01-02T06:45:25.651Z,38.30
2018-01-02T06:48:05.605Z,38.70
2018-01-02T06:50:45.754Z,38.50
2018-01-02T06:53:20.086Z,38.80
2018-01-02T06:55:55.790Z,39.10
2018-01-02T06:58:49.234Z,38.50
2018-01-02T07:01:27.796Z,38.30
2018-01-02T07:04:06.836Z,38.70
2018-01-02T07:06:45.855Z,38.70
2018-01-02T07:09:29.486Z,38.80
2018-01-02T07:12:05.728Z,37.90
2018-01-02T07:17:23.351Z,38.10
2018-01-02T07:19:59.477Z,38.50
2018-01-02T07:22:38.708Z,38.60
2018-01-02T07:25:13.851Z,38.50
2018-01-02T07:27:48.380Z,38.70
2018-01-02T07:30:24.486Z,38.90
2018-01-02T07:32:59.735Z,38.40
2018-01-02T07:35:40.856Z,38.30
2018-01-02T07:38:15.427Z,38.00
2018-01-02T07:40:51.103Z,38.70
2018-01-02T07:49:05.780Z,38.10
2018-01-02T07:54:35.078Z,38.50
2018-01-02T07:57:21.337Z,38.50
2018-01-02T08:00:00.983Z,39.10
2018-01-02T08:05:15.878Z,38.50
2018-01-02T08:07:50.729Z,38.60
2018-01-02T08:10:25.203Z,38.40
2018-01-02T08:12:59.558Z,38.80
2018-01-02T08:15:35.641Z,38.80
2018-01-02T08:18:20.747Z,39.30
2018-01-02T08:20:55.758Z,39.40
2018-01-02T08:23:32.269Z,39.70
2018-01-02T08:26:07.855Z,39.20
2018-01-02T08:28:41.812Z,39.60
2018-01-02T08:31:21.003Z,39.50
2018-01-02T08:33:57.539Z,39.30
2018-01-02T08:36:31.333Z,39.40
2018-01-02T08:39:05.267Z,39.60
2018-01-02T08:41:39.010Z,39.20
2018-01-02T08:44:20.118Z,40.20
2018-01-02T08:46:55.841Z,39.70
2018-01-02T08:49:33.065Z,39.50
2018-01-02T08:52:08.287Z,39.50
2018-01-02T08:54:43.375Z,39.20
2018-01-02T08:57:19.564Z,39.10
2018-01-02T08:59:54.533Z,38.80
2018-01-02T09:02:28.749Z,39.40
2018-01-02T09:05:03.532Z,39.30
2018-01-02T09:07:45.571Z,40.00
2018-01-02T09:10:19.902Z,39.60
2018-01-02T09:12:56.840Z,39.90
2018-01-02T09:15:31.780Z,39.90
2018-01-02T09:18:06.768Z,40.10
2018-01-02T09:20:43.913Z,39.80
2018-01-02T09:23:20.234Z,39.70
2018-01-02T09:25:56.875Z,40.00
2018-01-02T09:28:31.008Z,40.00
2018-01-02T09:31:20.756Z,40.10
2018-01-02T09:33:54.580Z,40.20
2018-01-02T09:36:30.202Z,40.30
2018-01-02T09:39:06.269Z,40.00
2018-01-02T09:41:40.621Z,39.80
2018-01-02T09:44:14.642Z,40.10
2018-01-02T09:46:54.496Z,40.10
2018-01-02T09:49:33.149Z,40.10
2018-01-02T09:52:07.916Z,39.40
2018-01-02T09:54:41.047Z,40.00
2018-01-02T09:57:24.929Z,39.60
2018-01-02T09:59:59.564Z,39.50
2018-01-02T10:02:38.948Z,39.40
2018-01-02T10:05:15.429Z,39.50
2018-01-02T10:07:50.704Z,39.20
2018-01-02T10:10:25.600Z,39.30
2018-01-02T10:13:02.403Z,40.00
2018-01-02T10:15:37.321Z,39.50
2018-01-02T10:18:11.641Z,39.60
2018-01-02T10:20:54.941Z,39.60
2018-01-02T10:23:30.024Z,39.20
2018-01-02T10:26:07.169Z,39.00
2018-01-02T10:28:50.188Z,39.40
2018-01-02T10:31:24.829Z,39.50
2018-01-02T10:34:00.006Z,39.90
2018-01-02T10:36:35.887Z,38.80
2018-01-02T10:39:10.006Z,39.40
2018-01-02T10:41:45.378Z,39.50
2018-01-02T10:44:21.239Z,40.20
2018-01-02T10:46:56.295Z,38.80
2018-01-02T10:49:31.569Z,39.50
2018-01-02T10:52:05.334Z,39.60
2018-01-02T10:54:40.004Z,39.40
2018-01-02T10:57:20.724Z,39.30
2018-01-02T11:00:01.594Z,39.20
2018-01-02T11:02:38.009Z,39.50
2018-01-02T11:05:17.725Z,39.60
2018-01-02T11:07:52.555Z,39.30
2018-01-02T11:10:26.646Z,39.20
2018-01-02T11:13:02.999Z,39.70
2018-01-02T11:18:23.594Z,39.20
2018-01-02T11:20:59.082Z,39.00
2018-01-02T11:23:33.401Z,38.70
2018-01-02T11:26:08.071Z,38.90
2018-01-02T11:28:42.050Z,39.00
2018-01-02T11:31:17.610Z,39.10
2018-01-02T11:34:03.321Z,39.90
2018-01-02T11:36:37.773Z,39.40
2018-01-02T11:39:20.659Z,39.60
2018-01-02T11:41:56.112Z,39.60
2018-01-02T11:44:31.213Z,39.60
2018-01-02T11:47:08.129Z,39.40
2018-01-02T11:49:46.689Z,39.50
2018-01-02T11:52:22.574Z,38.80
2018-01-02T11:54:57.819Z,38.90
2018-01-02T11:57:32.035Z,38.60
2018-01-02T12:00:05.360Z,39.50
2018-01-02T12:02:44.547Z,38.80
2018-01-02T12:05:19.357Z,38.80
2018-01-02T12:07:57.605Z,39.20
2018-01-02T12:10:33.898Z,38.80
2018-01-02T12:13:07.862Z,38.60
2018-01-02T12:15:43.836Z,38.90
2018-01-02T12:18:19.363Z,39.10
2018-01-02T12:20:53.942Z,39.00
2018-01-02T12:23:29.553Z,39.60
2018-01-02T12:26:05.347Z,39.60
2018-01-02T12:28:41.271Z,39.00
2018-01-02T12:31:16.846Z,38.90
2018-01-02T12:33:52.756Z,38.90
2018-01-02T12:36:26.447Z,39.00
2018-01-02T12:39:01.215Z,38.60
2018-01-02T12:41:34.829Z,38.90
2018-01-02T12:44:10.362Z,38.50
2018-01-02T12:46:45.781Z,38.80
2018-01-02T12:49:20.854Z,39.20
2018-01-02T12:51:55.980Z,38.70
2018-01-02T12:54:31.765Z,38.40
2018-01-02T12:57:06.143Z,38.10
2018-01-02T12:59:43.138Z,38.70
2018-01-02T13:02:18.621Z,38.20
2018-01-02T13:05:01.642Z,38.50
2018-01-02T13:07:44.596Z,38.90
2018-01-02T13:10:20.012Z,38.70
2018-01-02T13:12:56.667Z,38.80
2018-01-02T13:15:31.374Z,38.80
2018-01-02T13:18:06.272Z,39.60
2018-01-02T13:20:43.260Z,39.10
2018-01-02T13:23:18.426Z,39.00
2018-01-02T13:25:53.060Z,39.10
2018-01-02T13:28:28.807Z,39.50
2018-01-02T13:31:03.019Z,39.10
2018-01-02T13:33:41.341Z,39.40
2018-01-02T13:36:19.352Z,38.80
2018-01-02T13:38:53.736Z,38.90
2018-01-02T13:41:34.855Z,38.60
2018-01-02T13:44:11.665Z,39.10
2018-01-02T13:46:45.761Z,38.50
2018-01-02T13:49:22.296Z,38.30
2018-01-02T13:51:57.430Z,38.20
2018-01-02T13:54:34.327Z,38.30
2018-01-02T13:57:12.185Z,38.20
2018-01-02T13:59:47.813Z,37.90
2018-01-02T14:02:23.167Z,37.90
2018-01-02T14:04:58.945Z,38.20
2018-01-02T14:07:34.488Z,38.30
2018-01-02T14:10:10.360Z,37.40
2018-01-02T14:12:43.968Z,37.50
2018-01-02T14:15:19.958Z,37.90
2018-01-02T14:17:52.954Z,38.30
2018-01-02T14:20:26.636Z,38.20
2018-01-02T14:23:00.792Z,37.80
2018-01-02T14:25:36.193Z,38.20
2018-01-02T14:28:10.265Z,38.20
2018-01-02T14:30:55.687Z,37.60
2018-01-02T14:33:30.736Z,37.80
2018-01-02T14:36:04.742Z,38.20
2018-01-02T14:38:51.020Z,38.10
2018-01-02T14:41:29.714Z,38.20
2018-01-02T14:44:04.462Z,37.80
2018-01-02T14:46:39.636Z,38.10
2018-01-02T14:49:27.398Z,38.10
2018-01-02T14:52:03.823Z,37.70
2018-01-02T14:54:40.073Z,37.80
2018-01-02T14:57:15.249Z,37.90
2018-01-02T14:59:52.638Z,37.70
2018-01-02T15:02:28.709Z,37.80
2018-01-02T15:05:04.129Z,37.50
2018-01-02T15:07:38.011Z,37.90
2018-01-02T15:10:11.235Z,38.30
2018-01-02T15:12:46.753Z,37.80
2018-01-02T15:15:20.782Z,37.60
2018-01-02T15:17:56.662Z,38.20
2018-01-02T15:20:31.080Z,38.20
2018-01-02T15:23:06.040Z,38.40
2018-01-02T15:25:50.485Z,37.90
2018-01-02T15:28:27.056Z,37.70
2018-01-02T15:31:00.383Z,38.30
2018-01-02T15:33:35.336Z,38.30
2018-01-02T15:36:13.080Z,37.90
2018-01-02T15:38:48.062Z,37.90
2018-01-02T15:41:22.957Z,37.90
2018-01-02T15:43:56.993Z,38.30
2018-01-02T15:46:31.040Z,38.80
2018-01-02T15:49:05.930Z,38.80
2018-01-02T15:51:41.116Z,38.20
2018-01-02T15:54:25.447Z,38.70
2018-01-02T15:56:59.621Z,38.30
2018-01-02T15:59:34.555Z,37.90
2018-01-02T16:02:15.470Z,38.50
2018-01-02T16:04:50.346Z,38.20
2018-01-02T16:07:26.218Z,38.10
2018-01-02T16:10:02.270Z,38.10
2018-01-02T16:12:43.710Z,38.30
2018-01-02T16:15:24.907Z,37.90
2018-01-02T16:17:59.215Z,38.10
2018-01-02T16:20:33.537Z,37.10
2018-01-02T16:23:10.264Z,37.30
2018-01-02T16:25:44.158Z,37.30
2018-01-02T16:28:18.676Z,38.00
2018-01-02T16:31:01.881Z,36.80
2018-01-02T16:33:36.722Z,37.20
2018-01-02T16:36:14.636Z,37.80
2018-01-02T16:38:50.619Z,37.20
2018-01-02T16:41:25.956Z,37.00
2018-01-02T16:44:02.216Z,36.70
2018-01-02T16:46:45.384Z,36.90
2018-01-02T16:49:26.397Z,37.00
2018-01-02T16:52:00.331Z,36.70
2018-01-02T16:54:36.395Z,37.00
2018-01-02T16:57:11.502Z,36.70
2018-01-02T16:59:46.656Z,36.20
2018-01-02T17:02:22.188Z,35.40
2018-01-02T17:05:05.303Z,35.30
2018-01-02T17:07:40.656Z,35.30
2018-01-02T17:10:15.667Z,35.30
2018-01-02T17:12:50.151Z,35.30
2018-01-02T17:15:27.044Z,35.00
2018-01-02T17:18:02.845Z,34.90
2018-01-02T17:20:38.964Z,34.40
